sensor_id;sensor_type;location;lat;lon;timestamp;pressure;altitude;pressure_sealevel;temperature;humidity
50650;BME280;36621;60.058;30.346;2022-10-31T00:06:59;100618.91;;;3.15;44.57
50650;BME280;36621;60.058;30.346;2022-10-31T00:14:31;100645.72;;;3.10;45.01
50650;BME280;36621;60.058;30.346;2022-10-31T00:22:21;100651.34;;;3.08;45.02
50650;BME280;36621;60.058;30.346;2022-10-31T00:29:53;100665.44;;;3.10;44.81
50650;BME280;36621;60.058;30.346;2022-10-31T00:37:27;100673.84;;;3.02;45.54
50650;BME280;36621;60.058;30.346;2022-10-31T00:44:58;100691.28;;;3.00;45.85
50650;BME280;36621;60.058;30.346;2022-10-31T00:52:31;100689.41;;;3.00;45.92
50650;BME280;36621;60.058;30.346;2022-10-31T01:00:03;100705.69;;;2.93;45.97
50650;BME280;36621;60.058;30.346;2022-10-31T01:07:36;100708.44;;;2.87;46.29
50650;BME280;36621;60.058;30.346;2022-10-31T01:15:08;100726.03;;;2.89;46.82
50650;BME280;36621;60.058;30.346;2022-10-31T01:22:59;100748.66;;;2.88;46.96
50650;BME280;36621;60.058;30.346;2022-10-31T01:30:49;100744.06;;;2.89;47.13
50650;BME280;36621;60.058;30.346;2022-10-31T01:38:40;100758.63;;;2.88;47.32
50650;BME280;36621;60.058;30.346;2022-10-31T01:46:30;100776.09;;;2.78;47.57
50650;BME280;36621;60.058;30.346;2022-10-31T01:54:04;100798.53;;;2.79;47.79
50650;BME280;36621;60.058;30.346;2022-10-31T02:01:55;100807.84;;;2.83;47.82
50650;BME280;36621;60.058;30.346;2022-10-31T02:09:28;100812.59;;;2.81;47.78
50650;BME280;36621;60.058;30.346;2022-10-31T02:17:18;100826.97;;;2.75;48.16
50650;BME280;36621;60.058;30.346;2022-10-31T02:24:58;100835.06;;;2.75;48.20
50650;BME280;36621;60.058;30.346;2022-10-31T02:32:58;100833.25;;;2.69;48.22
50650;BME280;36621;60.058;30.346;2022-10-31T02:40:35;100859.34;;;2.68;48.80
50650;BME280;36621;60.058;30.346;2022-10-31T02:48:32;100879.44;;;2.72;48.52
50650;BME280;36621;60.058;30.346;2022-10-31T02:56:06;100882.81;;;2.68;48.90
50650;BME280;36621;60.058;30.346;2022-10-31T03:04:09;100893.44;;;2.56;48.85
50650;BME280;36621;60.058;30.346;2022-10-31T03:12:07;100910.91;;;2.47;49.63
50650;BME280;36621;60.058;30.346;2022-10-31T03:19:58;100927.72;;;2.42;49.46
50650;BME280;36621;60.058;30.346;2022-10-31T03:27:49;100949.69;;;2.39;49.75
50650;BME280;36621;60.058;30.346;2022-10-31T03:35:42;100983.06;;;2.45;49.79
50650;BME280;36621;60.058;30.346;2022-10-31T03:43:41;100973.53;;;2.35;49.94
50650;BME280;36621;60.058;30.346;2022-10-31T03:51:16;100979.56;;;2.31;50.55
50650;BME280;36621;60.058;30.346;2022-10-31T03:58:53;100986.19;;;2.28;50.45
50650;BME280;36621;60.058;30.346;2022-10-31T04:06:47;100981.03;;;2.26;50.53
50650;BME280;36621;60.058;30.346;2022-10-31T04:14:20;100982.47;;;2.22;50.83
50650;BME280;36621;60.058;30.346;2022-10-31T04:22:13;100993.72;;;2.13;51.38
50650;BME280;36621;60.058;30.346;2022-10-31T04:29:45;101004.91;;;2.03;51.77
50650;BME280;36621;60.058;30.346;2022-10-31T04:37:38;100996.41;;;2.06;51.70
50650;BME280;36621;60.058;30.346;2022-10-31T04:45:30;100991.63;;;2.15;51.39
50650;BME280;36621;60.058;30.346;2022-10-31T04:53:20;100998.03;;;2.14;51.37
50650;BME280;36621;60.058;30.346;2022-10-31T05:01:12;101014.63;;;2.11;51.64
50650;BME280;36621;60.058;30.346;2022-10-31T05:08:45;101016.72;;;2.08;51.81
50650;BME280;36621;60.058;30.346;2022-10-31T05:16:17;101033.09;;;2.07;51.79
50650;BME280;36621;60.058;30.346;2022-10-31T05:24:12;101056.31;;;2.08;51.83
50650;BME280;36621;60.058;30.346;2022-10-31T05:32:02;101069.56;;;2.03;52.12
50650;BME280;36621;60.058;30.346;2022-10-31T05:40:12;101078.66;;;2.08;51.74
50650;BME280;36621;60.058;30.346;2022-10-31T05:47:50;101087.38;;;2.17;52.03
50650;BME280;36621;60.058;30.346;2022-10-31T05:55:41;101090.03;;;2.31;51.51
50650;BME280;36621;60.058;30.346;2022-10-31T06:03:17;101086.91;;;2.60;51.42
50650;BME280;36621;60.058;30.346;2022-10-31T06:10:56;101098.72;;;2.59;51.35
50650;BME280;36621;60.058;30.346;2022-10-31T06:19:09;101122.16;;;2.59;51.82
50650;BME280;36621;60.058;30.346;2022-10-31T06:26:41;101116.75;;;2.59;51.45
50650;BME280;36621;60.058;30.346;2022-10-31T06:34:14;101103.88;;;2.61;51.75
50650;BME280;36621;60.058;30.346;2022-10-31T06:41:47;101127.50;;;2.66;51.81
50650;BME280;36621;60.058;30.346;2022-10-31T06:49:38;101119.44;;;2.66;52.17
50650;BME280;36621;60.058;30.346;2022-10-31T06:57:30;101121.25;;;2.78;51.96
50650;BME280;36621;60.058;30.346;2022-10-31T07:05:20;101141.16;;;2.84;52.02
50650;BME280;36621;60.058;30.346;2022-10-31T07:12:54;101158.53;;;3.08;51.50
50650;BME280;36621;60.058;30.346;2022-10-31T07:20:27;101169.88;;;3.30;51.92
50650;BME280;36621;60.058;30.346;2022-10-31T07:27:59;101194.75;;;3.46;51.51
50650;BME280;36621;60.058;30.346;2022-10-31T07:35:53;101213.63;;;3.53;51.44
50650;BME280;36621;60.058;30.346;2022-10-31T07:43:46;101210.63;;;3.68;51.53
50650;BME280;36621;60.058;30.346;2022-10-31T07:51:21;101220.56;;;3.80;51.06
50650;BME280;36621;60.058;30.346;2022-10-31T07:59:13;101232.94;;;3.95;51.23
50650;BME280;36621;60.058;30.346;2022-10-31T08:06:45;101259.63;;;4.16;50.71
50650;BME280;36621;60.058;30.346;2022-10-31T08:14:46;101276.19;;;4.33;50.78
50650;BME280;36621;60.058;30.346;2022-10-31T08:22:35;101294.81;;;4.42;50.36
50650;BME280;36621;60.058;30.346;2022-10-31T08:30:26;101299.19;;;4.43;50.60
50650;BME280;36621;60.058;30.346;2022-10-31T08:38:37;101299.84;;;4.38;50.13
50650;BME280;36621;60.058;30.346;2022-10-31T08:46:27;101310.53;;;4.26;50.08
50650;BME280;36621;60.058;30.346;2022-10-31T08:54:00;101311.22;;;4.15;50.42
50650;BME280;36621;60.058;30.346;2022-10-31T09:01:38;101323.03;;;4.21;50.95
50650;BME280;36621;60.058;30.346;2022-10-31T09:09:29;101324.25;;;4.25;50.49
50650;BME280;36621;60.058;30.346;2022-10-31T09:17:03;101330.84;;;4.35;50.47
50650;BME280;36621;60.058;30.346;2022-10-31T09:24:55;101335.81;;;4.39;50.48
50650;BME280;36621;60.058;30.346;2022-10-31T09:32:54;101357.63;;;4.44;50.58
50650;BME280;36621;60.058;30.346;2022-10-31T09:40:49;101367.00;;;4.41;50.42
50650;BME280;36621;60.058;30.346;2022-10-31T09:48:34;101380.53;;;4.41;50.35
50650;BME280;36621;60.058;30.346;2022-10-31T09:56:41;101405.47;;;4.43;50.65
50650;BME280;36621;60.058;30.346;2022-10-31T10:04:34;101415.69;;;4.41;50.26
50650;BME280;36621;60.058;30.346;2022-10-31T10:12:24;101414.41;;;4.44;50.17
50650;BME280;36621;60.058;30.346;2022-10-31T10:20:21;101413.56;;;4.43;49.99
50650;BME280;36621;60.058;30.346;2022-10-31T10:28:20;101415.44;;;4.49;49.72
50650;BME280;36621;60.058;30.346;2022-10-31T10:36:12;101415.81;;;4.53;49.67
50650;BME280;36621;60.058;30.346;2022-10-31T10:43:45;101417.28;;;4.56;49.89
50650;BME280;36621;60.058;30.346;2022-10-31T10:51:27;101415.59;;;4.61;49.77
50650;BME280;36621;60.058;30.346;2022-10-31T10:59:19;101420.53;;;4.71;49.92
50650;BME280;36621;60.058;30.346;2022-10-31T11:07:12;101432.38;;;4.77;49.86
50650;BME280;36621;60.058;30.346;2022-10-31T11:14:45;101431.03;;;4.86;49.75
50650;BME280;36621;60.058;30.346;2022-10-31T11:22:18;101431.25;;;4.91;49.82
50650;BME280;36621;60.058;30.346;2022-10-31T11:29:50;101417.88;;;4.96;49.88
50650;BME280;36621;60.058;30.346;2022-10-31T11:37:24;101437.00;;;5.01;49.98
50650;BME280;36621;60.058;30.346;2022-10-31T11:44:56;101432.03;;;4.98;49.49
50650;BME280;36621;60.058;30.346;2022-10-31T11:52:47;101432.41;;;5.02;49.46
50650;BME280;36621;60.058;30.346;2022-10-31T12:00:22;101438.81;;;5.08;49.59
50650;BME280;36621;60.058;30.346;2022-10-31T12:07:55;101450.66;;;5.13;49.22
50650;BME280;36621;60.058;30.346;2022-10-31T12:15:32;101453.16;;;5.15;49.55
50650;BME280;36621;60.058;30.346;2022-10-31T12:23:06;101465.19;;;5.19;49.14
50650;BME280;36621;60.058;30.346;2022-10-31T12:31:01;101468.34;;;5.16;48.97
50650;BME280;36621;60.058;30.346;2022-10-31T12:38:45;101462.31;;;5.14;48.73
50650;BME280;36621;60.058;30.346;2022-10-31T12:46:49;101471.91;;;5.10;49.04
50650;BME280;36621;60.058;30.346;2022-10-31T12:54:55;101471.09;;;5.09;48.38
50650;BME280;36621;60.058;30.346;2022-10-31T13:02:50;101474.38;;;5.11;48.59
50650;BME280;36621;60.058;30.346;2022-10-31T13:10:24;101489.16;;;5.15;48.03
50650;BME280;36621;60.058;30.346;2022-10-31T13:18:02;101493.31;;;5.18;47.53
50650;BME280;36621;60.058;30.346;2022-10-31T13:25:56;101487.88;;;5.25;48.08
50650;BME280;36621;60.058;30.346;2022-10-31T13:41:49;101496.66;;;5.20;47.99
50650;BME280;36621;60.058;30.346;2022-10-31T13:49:42;101506.88;;;5.11;48.11
50650;BME280;36621;60.058;30.346;2022-10-31T13:57:19;101509.19;;;5.08;48.15
50650;BME280;36621;60.058;30.346;2022-10-31T14:05:18;101503.59;;;5.02;48.21
50650;BME280;36621;60.058;30.346;2022-10-31T14:12:54;101504.66;;;5.01;48.28
50650;BME280;36621;60.058;30.346;2022-10-31T14:20:52;101503.22;;;4.99;48.34
50650;BME280;36621;60.058;30.346;2022-10-31T14:28:43;101499.69;;;4.98;48.39
50650;BME280;36621;60.058;30.346;2022-10-31T14:36:18;101502.78;;;4.95;48.58
50650;BME280;36621;60.058;30.346;2022-10-31T14:44:16;101507.00;;;4.91;48.27
50650;BME280;36621;60.058;30.346;2022-10-31T14:52:11;101503.06;;;4.87;48.44
50650;BME280;36621;60.058;30.346;2022-10-31T14:59:46;101498.69;;;4.86;48.42
50650;BME280;36621;60.058;30.346;2022-10-31T15:07:20;101494.94;;;4.87;48.58
50650;BME280;36621;60.058;30.346;2022-10-31T15:15:14;101485.53;;;4.90;48.74
50650;BME280;36621;60.058;30.346;2022-10-31T15:23:04;101484.94;;;4.94;48.53
50650;BME280;36621;60.058;30.346;2022-10-31T15:30:37;101498.84;;;4.98;48.57
50650;BME280;36621;60.058;30.346;2022-10-31T15:38:10;101506.34;;;4.96;48.48
50650;BME280;36621;60.058;30.346;2022-10-31T15:46:01;101509.06;;;4.96;49.07
50650;BME280;36621;60.058;30.346;2022-10-31T15:53:52;101524.44;;;4.95;48.51
50650;BME280;36621;60.058;30.346;2022-10-31T16:01:53;101528.66;;;4.91;48.71
50650;BME280;36621;60.058;30.346;2022-10-31T16:09:48;101525.31;;;4.89;49.20
50650;BME280;36621;60.058;30.346;2022-10-31T16:17:40;101529.25;;;4.93;49.12
50650;BME280;36621;60.058;30.346;2022-10-31T16:25:13;101534.88;;;4.98;48.99
50650;BME280;36621;60.058;30.346;2022-10-31T16:32:52;101523.59;;;5.01;49.03
50650;BME280;36621;60.058;30.346;2022-10-31T16:40:24;101534.38;;;5.08;49.09
50650;BME280;36621;60.058;30.346;2022-10-31T16:48:15;101524.78;;;5.12;49.27
50650;BME280;36621;60.058;30.346;2022-10-31T16:56:05;101521.47;;;5.10;49.29
50650;BME280;36621;60.058;30.346;2022-10-31T17:04:02;101509.38;;;5.13;49.11
50650;BME280;36621;60.058;30.346;2022-10-31T17:11:56;101508.72;;;5.17;49.17
50650;BME280;36621;60.058;30.346;2022-10-31T17:19:47;101508.25;;;5.27;48.99
50650;BME280;36621;60.058;30.346;2022-10-31T17:27:39;101518.59;;;5.37;49.05
50650;BME280;36621;60.058;30.346;2022-10-31T17:35:30;101484.75;;;5.21;48.92
50650;BME280;36621;60.058;30.346;2022-10-31T17:43:20;101513.75;;;5.46;49.21
50650;BME280;36621;60.058;30.346;2022-10-31T17:51:10;101521.41;;;5.49;49.54
50650;BME280;36621;60.058;30.346;2022-10-31T17:58:42;101532.06;;;5.50;49.30
50650;BME280;36621;60.058;30.346;2022-10-31T18:06:26;101535.81;;;5.49;49.30
50650;BME280;36621;60.058;30.346;2022-10-31T18:14:09;101531.47;;;5.42;49.25
50650;BME280;36621;60.058;30.346;2022-10-31T18:21:49;101538.25;;;5.26;49.48
50650;BME280;36621;60.058;30.346;2022-10-31T18:29:41;101536.25;;;5.08;49.58
50650;BME280;36621;60.058;30.346;2022-10-31T18:37:32;101533.16;;;5.04;50.11
50650;BME280;36621;60.058;30.346;2022-10-31T18:45:04;101539.78;;;5.15;49.75
50650;BME280;36621;60.058;30.346;2022-10-31T18:52:55;101529.72;;;5.22;49.58
50650;BME280;36621;60.058;30.346;2022-10-31T19:00:45;101537.84;;;5.22;49.95
50650;BME280;36621;60.058;30.346;2022-10-31T19:08:36;101540.16;;;5.18;50.23
50650;BME280;36621;60.058;30.346;2022-10-31T19:16:26;101546.06;;;5.09;50.49
50650;BME280;36621;60.058;30.346;2022-10-31T19:23:59;101545.25;;;5.01;50.61
50650;BME280;36621;60.058;30.346;2022-10-31T19:31:31;101531.97;;;4.93;50.68
50650;BME280;36621;60.058;30.346;2022-10-31T19:39:08;101541.56;;;4.82;51.04
50650;BME280;36621;60.058;30.346;2022-10-31T19:46:58;101543.72;;;4.67;51.08
50650;BME280;36621;60.058;30.346;2022-10-31T19:54:30;101544.00;;;4.45;50.68
50650;BME280;36621;60.058;30.346;2022-10-31T20:02:20;101532.81;;;4.28;50.98
50650;BME280;36621;60.058;30.346;2022-10-31T20:10:11;101535.09;;;4.18;51.17
50650;BME280;36621;60.058;30.346;2022-10-31T20:18:01;101524.94;;;4.07;51.75
50650;BME280;36621;60.058;30.346;2022-10-31T20:25:51;101529.13;;;3.96;52.24
50650;BME280;36621;60.058;30.346;2022-10-31T20:33:41;101521.00;;;3.89;51.98
50650;BME280;36621;60.058;30.346;2022-10-31T20:41:13;101511.03;;;3.83;52.52
50650;BME280;36621;60.058;30.346;2022-10-31T20:49:03;101511.84;;;3.77;52.10
50650;BME280;36621;60.058;30.346;2022-10-31T20:56:36;101507.94;;;3.73;52.48
50650;BME280;36621;60.058;30.346;2022-10-31T21:04:08;101480.69;;;3.68;52.41
50650;BME280;36621;60.058;30.346;2022-10-31T21:11:58;101487.78;;;3.69;52.63
50650;BME280;36621;60.058;30.346;2022-10-31T21:19:30;101483.19;;;3.76;52.80
50650;BME280;36621;60.058;30.346;2022-10-31T21:27:20;101478.59;;;3.96;52.34
50650;BME280;36621;60.058;30.346;2022-10-31T21:35:10;101485.63;;;4.11;53.09
50650;BME280;36621;60.058;30.346;2022-10-31T21:43:00;101468.13;;;4.20;52.72
50650;BME280;36621;60.058;30.346;2022-10-31T21:50:32;101470.22;;;4.25;52.98
50650;BME280;36621;60.058;30.346;2022-10-31T21:58:23;101474.78;;;4.24;52.99
50650;BME280;36621;60.058;30.346;2022-10-31T22:05:54;101473.97;;;4.24;53.49
50650;BME280;36621;60.058;30.346;2022-10-31T22:13:28;101459.81;;;4.28;53.79
50650;BME280;36621;60.058;30.346;2022-10-31T22:21:18;101454.81;;;4.32;53.69
50650;BME280;36621;60.058;30.346;2022-10-31T22:28:51;101449.81;;;4.35;53.44
50650;BME280;36621;60.058;30.346;2022-10-31T22:36:24;101440.66;;;4.37;53.48
50650;BME280;36621;60.058;30.346;2022-10-31T22:43:57;101426.06;;;4.44;53.54
50650;BME280;36621;60.058;30.346;2022-10-31T22:51:48;101425.16;;;4.57;53.60
50650;BME280;36621;60.058;30.346;2022-10-31T22:59:21;101418.63;;;4.78;53.99
50650;BME280;36621;60.058;30.346;2022-10-31T23:07:10;101411.00;;;4.94;54.21
50650;BME280;36621;60.058;30.346;2022-10-31T23:14:43;101409.81;;;5.15;54.26
50650;BME280;36621;60.058;30.346;2022-10-31T23:22:34;101401.00;;;5.26;54.30
50650;BME280;36621;60.058;30.346;2022-10-31T23:30:07;101398.88;;;5.28;54.57
50650;BME280;36621;60.058;30.346;2022-10-31T23:37:57;101398.22;;;5.33;54.76
50650;BME280;36621;60.058;30.346;2022-10-31T23:45:29;101393.78;;;5.38;55.34
50650;BME280;36621;60.058;30.346;2022-10-31T23:53:19;101380.44;;;5.44;55.90
